Airfield :







YOU CAN JOIN US ON...

 
LOGIN :

Register | Disclaimer

   EN    FR    IT 

 









Legend :    VFR   Marginal VFR   IFR   Intensive IFR   Very Intensive IFR
Visi :
Ceiling :
>= 8 km
>= 3000ft
5 to 8 km
1000 to 3000 ft
1500m to 5 km
500 to 1000 ft
800 to 1500m
200 to 500 ft
< 800m
< 200 ft
Symbols :   Thunderstorms  Fog  Heavy snow  Heavy precipitations  Wind > 20 kt







- Airport Elevation : 118 ft
- IATA code : YUL


CYUL - Montréal - Pierre-Elliott-Trudeau Int.

CURRENT METAR :
  • 191000Z 16004KT 15SM FEW080 FEW180 SCT250 21/20 A2984 RMK ACC1AC1CI2 ACC TR SLP106 DENSITY ALT 1000FT

EXPIRED METARs :
  • 190900Z 13004KT 15SM SCT250 22/20 A2984 RMK CI3 SLP104 DENSITY ALT 1100FT
  • 190818Z 24003KT 15SM FEW006 FEW250 22/20 A2984 RMK SF1CI1 SF TR SLP105 DENSITY ALT 1100FT
  • 190800Z 23002KT 15SM SKC 22/20 A2984 RMK SLP105 DENSITY ALT 1100FT

TAF TAF CYUL
Valid from the 19 at 09:00 until the 20 at 06:00 UTC


190838Z 1909/2006 20005KT P6SM FEW050 SCT100
FM191000 17007KT P6SM SCT050 BKN080
TEMPO 1911/1914 P6SM -SHRA SCT030 OVC050
FM191400 22012G22KT P6SM SCT030 BKN120
FM191600 24015G25KT P6SM BKN040
TEMPO 1918/1921 P6SM -SHRA
FM192300 28015KT P6SM FEW060
BECMG 2001/2003 29008KT RMK NXT FCST BY 191200Z
ATIS : ENG : +1 514-633-3037 FRA : +1 514-633-3034
No reported NOTAMs for that airfield.



MET'MAP, your aeronautical weather chart ! - Copyright ORBIFLY December 2007 - Disclaimer

ORBIFLY MET'MAP TEAM :

Programming & Development : Alexandra Zaïnal
Concept & Development : Baudouin d'Aumeries
Co-Development & Prog : Marc-Olivier Méhu
Technical & hardware support : Manuel Goepfert

Contact : metmap@orbifly.com




SOURCES & CREDITS :

   NOAA